sensor_id;sensor_type;location;lat;lon;timestamp;P1;durP1;ratioP1;P2;durP2;ratioP2
10890;SDS011;5498;50.928;11.598;2023-03-01T00:02:27;77.87;;;36.20;;
10890;SDS011;5498;50.928;11.598;2023-03-01T00:05:29;78.43;;;36.30;;
10890;SDS011;5498;50.928;11.598;2023-03-01T00:08:32;80.23;;;36.80;;
10890;SDS011;5498;50.928;11.598;2023-03-01T00:11:34;85.70;;;38.00;;
10890;SDS011;5498;50.928;11.598;2023-03-01T00:14:37;78.80;;;33.77;;
10890;SDS011;5498;50.928;11.598;2023-03-01T00:17:39;77.53;;;32.67;;
10890;SDS011;5498;50.928;11.598;2023-03-01T00:20:41;79.37;;;33.60;;
10890;SDS011;5498;50.928;11.598;2023-03-01T00:23:51;75.53;;;32.03;;
10890;SDS011;5498;50.928;11.598;2023-03-01T00:26:53;70.87;;;31.83;;
10890;SDS011;5498;50.928;11.598;2023-03-01T00:29:57;84.30;;;37.70;;
10890;SDS011;5498;50.928;11.598;2023-03-01T00:32:59;83.33;;;36.63;;
10890;SDS011;5498;50.928;11.598;2023-03-01T00:36:01;92.30;;;38.63;;
10890;SDS011;5498;50.928;11.598;2023-03-01T00:39:07;79.87;;;33.60;;
10890;SDS011;5498;50.928;11.598;2023-03-01T00:42:12;77.77;;;32.57;;
10890;SDS011;5498;50.928;11.598;2023-03-01T00:45:15;82.53;;;34.70;;
10890;SDS011;5498;50.928;11.598;2023-03-01T00:48:17;78.47;;;33.13;;
10890;SDS011;5498;50.928;11.598;2023-03-01T00:51:20;79.93;;;33.57;;
10890;SDS011;5498;50.928;11.598;2023-03-01T00:54:23;84.37;;;34.93;;
10890;SDS011;5498;50.928;11.598;2023-03-01T00:57:25;87.97;;;36.60;;
10890;SDS011;5498;50.928;11.598;2023-03-01T01:00:29;88.40;;;36.77;;
10890;SDS011;5498;50.928;11.598;2023-03-01T01:03:30;87.20;;;36.60;;
10890;SDS011;5498;50.928;11.598;2023-03-01T01:06:33;87.90;;;36.87;;
10890;SDS011;5498;50.928;11.598;2023-03-01T01:09:37;86.17;;;35.80;;
10890;SDS011;5498;50.928;11.598;2023-03-01T01:12:39;84.47;;;35.47;;
10890;SDS011;5498;50.928;11.598;2023-03-01T01:15:43;85.03;;;35.80;;
10890;SDS011;5498;50.928;11.598;2023-03-01T01:18:46;88.63;;;36.50;;
10890;SDS011;5498;50.928;11.598;2023-03-01T01:21:48;90.23;;;37.07;;
10890;SDS011;5498;50.928;11.598;2023-03-01T01:24:51;91.30;;;37.27;;
10890;SDS011;5498;50.928;11.598;2023-03-01T01:27:53;90.87;;;36.83;;
10890;SDS011;5498;50.928;11.598;2023-03-01T01:30:56;89.77;;;36.33;;
10890;SDS011;5498;50.928;11.598;2023-03-01T01:33:58;91.83;;;37.27;;
10890;SDS011;5498;50.928;11.598;2023-03-01T01:37:01;94.07;;;38.23;;
10890;SDS011;5498;50.928;11.598;2023-03-01T01:40:04;95.13;;;38.60;;
10890;SDS011;5498;50.928;11.598;2023-03-01T01:43:08;94.97;;;38.57;;
10890;SDS011;5498;50.928;11.598;2023-03-01T01:46:22;91.37;;;37.10;;
10890;SDS011;5498;50.928;11.598;2023-03-01T01:49:31;90.63;;;36.80;;
10890;SDS011;5498;50.928;11.598;2023-03-01T01:52:37;91.23;;;36.83;;
10890;SDS011;5498;50.928;11.598;2023-03-01T01:55:40;91.47;;;37.10;;
10890;SDS011;5498;50.928;11.598;2023-03-01T01:58:47;91.43;;;37.10;;
10890;SDS011;5498;50.928;11.598;2023-03-01T02:01:51;91.37;;;37.00;;
10890;SDS011;5498;50.928;11.598;2023-03-01T02:04:55;90.47;;;36.80;;
10890;SDS011;5498;50.928;11.598;2023-03-01T02:08:11;89.30;;;36.07;;
10890;SDS011;5498;50.928;11.598;2023-03-01T02:11:16;84.90;;;34.73;;
10890;SDS011;5498;50.928;11.598;2023-03-01T02:14:19;93.50;;;37.70;;
10890;SDS011;5498;50.928;11.598;2023-03-01T02:17:22;93.93;;;38.87;;
10890;SDS011;5498;50.928;11.598;2023-03-01T02:20:26;77.40;;;31.80;;
10890;SDS011;5498;50.928;11.598;2023-03-01T02:23:35;69.90;;;29.23;;
10890;SDS011;5498;50.928;11.598;2023-03-01T02:26:40;44.63;;;19.23;;
10890;SDS011;5498;50.928;11.598;2023-03-01T02:29:49;67.73;;;28.47;;
10890;SDS011;5498;50.928;11.598;2023-03-01T02:32:53;71.30;;;29.97;;
10890;SDS011;5498;50.928;11.598;2023-03-01T02:36:03;85.17;;;34.47;;
10890;SDS011;5498;50.928;11.598;2023-03-01T02:39:10;90.47;;;36.07;;
10890;SDS011;5498;50.928;11.598;2023-03-01T02:42:18;90.77;;;36.47;;
10890;SDS011;5498;50.928;11.598;2023-03-01T02:45:28;89.30;;;35.90;;
10890;SDS011;5498;50.928;11.598;2023-03-01T02:48:38;86.37;;;35.37;;
10890;SDS011;5498;50.928;11.598;2023-03-01T02:51:44;83.27;;;33.77;;
10890;SDS011;5498;50.928;11.598;2023-03-01T02:54:58;84.60;;;34.50;;
10890;SDS011;5498;50.928;11.598;2023-03-01T02:58:02;87.23;;;35.53;;
10890;SDS011;5498;50.928;11.598;2023-03-01T03:01:06;86.63;;;35.10;;
10890;SDS011;5498;50.928;11.598;2023-03-01T03:04:10;92.20;;;37.10;;
10890;SDS011;5498;50.928;11.598;2023-03-01T03:07:16;87.57;;;35.53;;
10890;SDS011;5498;50.928;11.598;2023-03-01T03:10:19;88.60;;;35.90;;
10890;SDS011;5498;50.928;11.598;2023-03-01T03:13:25;89.40;;;36.10;;
10890;SDS011;5498;50.928;11.598;2023-03-01T03:16:30;93.23;;;36.60;;
10890;SDS011;5498;50.928;11.598;2023-03-01T03:19:32;97.60;;;38.17;;
10890;SDS011;5498;50.928;11.598;2023-03-01T03:22:34;98.93;;;38.60;;
10890;SDS011;5498;50.928;11.598;2023-03-01T03:25:36;96.37;;;37.87;;
10890;SDS011;5498;50.928;11.598;2023-03-01T03:28:37;94.97;;;37.53;;
10890;SDS011;5498;50.928;11.598;2023-03-01T03:31:41;96.03;;;38.03;;
10890;SDS011;5498;50.928;11.598;2023-03-01T03:34:43;96.23;;;37.97;;
10890;SDS011;5498;50.928;11.598;2023-03-01T03:37:45;99.80;;;39.00;;
10890;SDS011;5498;50.928;11.598;2023-03-01T03:41:06;99.13;;;38.90;;
10890;SDS011;5498;50.928;11.598;2023-03-01T03:44:09;97.23;;;38.17;;
10890;SDS011;5498;50.928;11.598;2023-03-01T03:47:12;101.07;;;39.50;;
10890;SDS011;5498;50.928;11.598;2023-03-01T03:50:15;99.40;;;38.63;;
10890;SDS011;5498;50.928;11.598;2023-03-01T03:53:19;100.77;;;39.50;;
10890;SDS011;5498;50.928;11.598;2023-03-01T03:56:22;98.83;;;38.80;;
10890;SDS011;5498;50.928;11.598;2023-03-01T03:59:26;97.00;;;38.07;;
10890;SDS011;5498;50.928;11.598;2023-03-01T04:02:29;97.33;;;38.47;;
10890;SDS011;5498;50.928;11.598;2023-03-01T04:05:31;96.30;;;38.10;;
10890;SDS011;5498;50.928;11.598;2023-03-01T04:08:33;95.33;;;37.70;;
10890;SDS011;5498;50.928;11.598;2023-03-01T04:11:35;95.07;;;37.60;;
10890;SDS011;5498;50.928;11.598;2023-03-01T04:14:38;99.50;;;38.73;;
10890;SDS011;5498;50.928;11.598;2023-03-01T04:17:42;96.87;;;37.87;;
10890;SDS011;5498;50.928;11.598;2023-03-01T04:20:46;94.97;;;37.60;;
10890;SDS011;5498;50.928;11.598;2023-03-01T04:23:49;96.57;;;37.93;;
10890;SDS011;5498;50.928;11.598;2023-03-01T04:26:52;100.30;;;39.13;;
10890;SDS011;5498;50.928;11.598;2023-03-01T04:29:54;98.77;;;38.47;;
10890;SDS011;5498;50.928;11.598;2023-03-01T04:32:57;101.70;;;39.50;;
10890;SDS011;5498;50.928;11.598;2023-03-01T04:35:59;100.30;;;38.90;;
10890;SDS011;5498;50.928;11.598;2023-03-01T04:39:02;102.90;;;39.80;;
10890;SDS011;5498;50.928;11.598;2023-03-01T04:42:12;99.07;;;38.87;;
10890;SDS011;5498;50.928;11.598;2023-03-01T04:45:14;98.73;;;38.60;;
10890;SDS011;5498;50.928;11.598;2023-03-01T04:48:17;100.33;;;39.30;;
10890;SDS011;5498;50.928;11.598;2023-03-01T04:51:19;97.33;;;38.10;;
10890;SDS011;5498;50.928;11.598;2023-03-01T04:54:20;97.20;;;38.47;;
10890;SDS011;5498;50.928;11.598;2023-03-01T04:57:22;99.30;;;38.87;;
10890;SDS011;5498;50.928;11.598;2023-03-01T05:00:24;97.37;;;38.33;;
10890;SDS011;5498;50.928;11.598;2023-03-01T05:03:27;98.47;;;38.67;;
10890;SDS011;5498;50.928;11.598;2023-03-01T05:06:29;97.50;;;38.33;;
10890;SDS011;5498;50.928;11.598;2023-03-01T05:09:31;96.67;;;38.17;;
10890;SDS011;5498;50.928;11.598;2023-03-01T05:12:33;96.80;;;38.23;;
10890;SDS011;5498;50.928;11.598;2023-03-01T05:15:37;95.53;;;37.73;;
10890;SDS011;5498;50.928;11.598;2023-03-01T05:18:40;89.70;;;36.30;;
10890;SDS011;5498;50.928;11.598;2023-03-01T05:21:43;89.00;;;35.90;;
10890;SDS011;5498;50.928;11.598;2023-03-01T05:25:04;83.07;;;34.60;;
10890;SDS011;5498;50.928;11.598;2023-03-01T05:28:07;71.27;;;30.30;;
10890;SDS011;5498;50.928;11.598;2023-03-01T05:31:13;49.00;;;21.17;;
10890;SDS011;5498;50.928;11.598;2023-03-01T05:34:16;47.17;;;20.23;;
10890;SDS011;5498;50.928;11.598;2023-03-01T05:37:18;55.83;;;23.80;;
10890;SDS011;5498;50.928;11.598;2023-03-01T05:40:21;58.57;;;25.10;;
10890;SDS011;5498;50.928;11.598;2023-03-01T05:43:24;48.73;;;20.77;;
10890;SDS011;5498;50.928;11.598;2023-03-01T05:46:26;59.10;;;25.10;;
10890;SDS011;5498;50.928;11.598;2023-03-01T05:49:30;61.83;;;26.27;;
10890;SDS011;5498;50.928;11.598;2023-03-01T05:52:33;70.67;;;29.57;;
10890;SDS011;5498;50.928;11.598;2023-03-01T05:55:35;68.43;;;28.57;;
10890;SDS011;5498;50.928;11.598;2023-03-01T05:58:38;71.07;;;29.37;;
10890;SDS011;5498;50.928;11.598;2023-03-01T06:01:40;74.07;;;30.67;;
10890;SDS011;5498;50.928;11.598;2023-03-01T06:04:43;73.30;;;30.03;;
10890;SDS011;5498;50.928;11.598;2023-03-01T06:07:44;77.77;;;31.90;;
10890;SDS011;5498;50.928;11.598;2023-03-01T06:10:46;77.27;;;31.87;;
10890;SDS011;5498;50.928;11.598;2023-03-01T06:13:48;78.17;;;32.13;;
10890;SDS011;5498;50.928;11.598;2023-03-01T06:16:50;79.20;;;32.57;;
10890;SDS011;5498;50.928;11.598;2023-03-01T06:19:53;79.67;;;32.70;;
10890;SDS011;5498;50.928;11.598;2023-03-01T06:22:55;78.77;;;32.47;;
10890;SDS011;5498;50.928;11.598;2023-03-01T06:25:57;77.53;;;31.80;;
10890;SDS011;5498;50.928;11.598;2023-03-01T06:28:59;77.33;;;31.77;;
10890;SDS011;5498;50.928;11.598;2023-03-01T06:32:01;81.83;;;33.33;;
10890;SDS011;5498;50.928;11.598;2023-03-01T06:35:05;83.53;;;34.07;;
10890;SDS011;5498;50.928;11.598;2023-03-01T06:38:08;82.80;;;33.77;;
10890;SDS011;5498;50.928;11.598;2023-03-01T06:41:10;83.07;;;33.80;;
10890;SDS011;5498;50.928;11.598;2023-03-01T06:44:12;83.73;;;34.00;;
10890;SDS011;5498;50.928;11.598;2023-03-01T06:47:14;84.83;;;34.47;;
10890;SDS011;5498;50.928;11.598;2023-03-01T06:50:17;82.97;;;33.83;;
10890;SDS011;5498;50.928;11.598;2023-03-01T06:53:20;83.90;;;33.97;;
10890;SDS011;5498;50.928;11.598;2023-03-01T06:56:22;84.73;;;34.57;;
10890;SDS011;5498;50.928;11.598;2023-03-01T06:59:23;81.90;;;33.57;;
10890;SDS011;5498;50.928;11.598;2023-03-01T07:02:25;75.43;;;31.33;;
10890;SDS011;5498;50.928;11.598;2023-03-01T07:05:29;70.53;;;29.23;;
10890;SDS011;5498;50.928;11.598;2023-03-01T07:08:31;71.10;;;29.53;;
10890;SDS011;5498;50.928;11.598;2023-03-01T07:11:33;64.73;;;27.07;;
10890;SDS011;5498;50.928;11.598;2023-03-01T07:14:35;69.63;;;29.20;;
10890;SDS011;5498;50.928;11.598;2023-03-01T07:17:36;63.73;;;26.60;;
10890;SDS011;5498;50.928;11.598;2023-03-01T07:20:40;65.60;;;27.37;;
10890;SDS011;5498;50.928;11.598;2023-03-01T07:23:42;68.93;;;28.77;;
10890;SDS011;5498;50.928;11.598;2023-03-01T07:26:44;63.93;;;26.67;;
10890;SDS011;5498;50.928;11.598;2023-03-01T07:29:50;59.73;;;25.20;;
10890;SDS011;5498;50.928;11.598;2023-03-01T07:32:51;55.83;;;23.57;;
10890;SDS011;5498;50.928;11.598;2023-03-01T07:35:58;62.40;;;26.43;;
10890;SDS011;5498;50.928;11.598;2023-03-01T07:39:01;62.53;;;26.43;;
10890;SDS011;5498;50.928;11.598;2023-03-01T07:42:03;62.50;;;26.27;;
10890;SDS011;5498;50.928;11.598;2023-03-01T07:45:05;64.33;;;26.67;;
10890;SDS011;5498;50.928;11.598;2023-03-01T07:48:08;68.63;;;28.43;;
10890;SDS011;5498;50.928;11.598;2023-03-01T07:51:12;69.93;;;29.13;;
10890;SDS011;5498;50.928;11.598;2023-03-01T07:54:14;69.00;;;28.90;;
10890;SDS011;5498;50.928;11.598;2023-03-01T07:57:16;72.83;;;30.20;;
10890;SDS011;5498;50.928;11.598;2023-03-01T08:00:18;71.93;;;29.90;;
10890;SDS011;5498;50.928;11.598;2023-03-01T08:03:20;76.87;;;32.07;;
10890;SDS011;5498;50.928;11.598;2023-03-01T08:06:23;78.93;;;34.20;;
10890;SDS011;5498;50.928;11.598;2023-03-01T08:09:25;74.13;;;33.40;;
10890;SDS011;5498;50.928;11.598;2023-03-01T08:12:27;72.57;;;34.50;;
10890;SDS011;5498;50.928;11.598;2023-03-01T08:15:29;65.27;;;31.57;;
10890;SDS011;5498;50.928;11.598;2023-03-01T08:18:31;57.77;;;29.23;;
10890;SDS011;5498;50.928;11.598;2023-03-01T08:21:34;58.87;;;31.30;;
10890;SDS011;5498;50.928;11.598;2023-03-01T08:24:36;49.47;;;25.57;;
10890;SDS011;5498;50.928;11.598;2023-03-01T08:27:38;44.63;;;24.13;;
10890;SDS011;5498;50.928;11.598;2023-03-01T08:30:40;38.47;;;21.63;;
10890;SDS011;5498;50.928;11.598;2023-03-01T08:33:42;30.93;;;17.53;;
10890;SDS011;5498;50.928;11.598;2023-03-01T08:36:45;23.20;;;13.50;;
10890;SDS011;5498;50.928;11.598;2023-03-01T08:39:47;27.40;;;16.73;;
10890;SDS011;5498;50.928;11.598;2023-03-01T08:42:49;19.43;;;12.00;;
10890;SDS011;5498;50.928;11.598;2023-03-01T08:45:51;20.13;;;12.70;;
10890;SDS011;5498;50.928;11.598;2023-03-01T08:48:53;23.57;;;15.23;;
10890;SDS011;5498;50.928;11.598;2023-03-01T08:51:56;20.60;;;13.47;;
10890;SDS011;5498;50.928;11.598;2023-03-01T08:54:58;13.80;;;9.17;;
10890;SDS011;5498;50.928;11.598;2023-03-01T08:58:01;10.23;;;6.97;;
10890;SDS011;5498;50.928;11.598;2023-03-01T09:01:06;10.77;;;7.27;;
10890;SDS011;5498;50.928;11.598;2023-03-01T09:04:09;10.13;;;6.87;;
10890;SDS011;5498;50.928;11.598;2023-03-01T09:07:12;13.87;;;9.50;;
10890;SDS011;5498;50.928;11.598;2023-03-01T09:10:14;13.03;;;9.07;;
10890;SDS011;5498;50.928;11.598;2023-03-01T09:13:16;17.37;;;11.80;;
10890;SDS011;5498;50.928;11.598;2023-03-01T09:16:19;17.70;;;12.20;;
10890;SDS011;5498;50.928;11.598;2023-03-01T09:19:22;29.97;;;20.07;;
10890;SDS011;5498;50.928;11.598;2023-03-01T09:22:26;31.73;;;21.60;;
10890;SDS011;5498;50.928;11.598;2023-03-01T09:25:28;30.77;;;20.73;;
10890;SDS011;5498;50.928;11.598;2023-03-01T09:28:29;32.87;;;22.40;;
10890;SDS011;5498;50.928;11.598;2023-03-01T09:31:31;31.40;;;21.33;;
10890;SDS011;5498;50.928;11.598;2023-03-01T09:34:33;26.87;;;18.27;;
10890;SDS011;5498;50.928;11.598;2023-03-01T09:37:57;32.93;;;22.07;;
10890;SDS011;5498;50.928;11.598;2023-03-01T09:40:59;33.70;;;22.70;;
10890;SDS011;5498;50.928;11.598;2023-03-01T09:44:02;32.33;;;21.23;;
10890;SDS011;5498;50.928;11.598;2023-03-01T09:47:12;32.30;;;21.33;;
10890;SDS011;5498;50.928;11.598;2023-03-01T09:50:20;30.53;;;20.57;;
10890;SDS011;5498;50.928;11.598;2023-03-01T09:53:25;30.30;;;20.60;;
10890;SDS011;5498;50.928;11.598;2023-03-01T09:56:36;31.60;;;22.07;;
10890;SDS011;5498;50.928;11.598;2023-03-01T09:59:45;29.60;;;21.30;;
10890;SDS011;5498;50.928;11.598;2023-03-01T10:03:00;28.37;;;19.77;;
10890;SDS011;5498;50.928;11.598;2023-03-01T10:06:13;24.83;;;18.27;;
10890;SDS011;5498;50.928;11.598;2023-03-01T10:09:22;28.20;;;19.53;;
10890;SDS011;5498;50.928;11.598;2023-03-01T10:12:25;22.93;;;15.40;;
10890;SDS011;5498;50.928;11.598;2023-03-01T10:15:35;24.50;;;16.83;;
10890;SDS011;5498;50.928;11.598;2023-03-01T10:18:45;25.30;;;17.20;;
10890;SDS011;5498;50.928;11.598;2023-03-01T10:21:54;21.60;;;15.10;;
10890;SDS011;5498;50.928;11.598;2023-03-01T10:25:05;21.10;;;14.57;;
10890;SDS011;5498;50.928;11.598;2023-03-01T10:28:10;19.53;;;13.47;;
10890;SDS011;5498;50.928;11.598;2023-03-01T10:31:19;21.57;;;14.67;;
10890;SDS011;5498;50.928;11.598;2023-03-01T10:34:28;22.37;;;15.53;;
10890;SDS011;5498;50.928;11.598;2023-03-01T10:37:32;16.50;;;11.27;;
10890;SDS011;5498;50.928;11.598;2023-03-01T10:40:35;20.80;;;14.30;;
10890;SDS011;5498;50.928;11.598;2023-03-01T10:43:52;19.57;;;13.60;;
10890;SDS011;5498;50.928;11.598;2023-03-01T10:46:58;16.20;;;11.07;;
10890;SDS011;5498;50.928;11.598;2023-03-01T10:50:03;16.63;;;11.40;;
10890;SDS011;5498;50.928;11.598;2023-03-01T10:53:19;19.30;;;13.20;;
10890;SDS011;5498;50.928;11.598;2023-03-01T10:56:30;21.97;;;15.27;;
10890;SDS011;5498;50.928;11.598;2023-03-01T10:59:51;21.23;;;15.00;;
10890;SDS011;5498;50.928;11.598;2023-03-01T11:03:12;19.83;;;14.60;;
10890;SDS011;5498;50.928;11.598;2023-03-01T11:06:21;16.53;;;12.53;;
10890;SDS011;5498;50.928;11.598;2023-03-01T11:09:24;17.23;;;13.00;;
10890;SDS011;5498;50.928;11.598;2023-03-01T11:12:29;19.20;;;14.17;;
10890;SDS011;5498;50.928;11.598;2023-03-01T11:15:32;19.43;;;15.13;;
10890;SDS011;5498;50.928;11.598;2023-03-01T11:18:34;19.20;;;14.97;;
10890;SDS011;5498;50.928;11.598;2023-03-01T11:21:37;20.43;;;16.20;;
10890;SDS011;5498;50.928;11.598;2023-03-01T11:24:42;19.93;;;15.83;;
10890;SDS011;5498;50.928;11.598;2023-03-01T11:27:49;20.07;;;16.03;;
10890;SDS011;5498;50.928;11.598;2023-03-01T11:30:51;14.90;;;12.03;;
10890;SDS011;5498;50.928;11.598;2023-03-01T11:33:57;16.70;;;13.60;;
10890;SDS011;5498;50.928;11.598;2023-03-01T11:37:09;17.07;;;13.93;;
10890;SDS011;5498;50.928;11.598;2023-03-01T11:40:25;19.43;;;15.67;;
10890;SDS011;5498;50.928;11.598;2023-03-01T11:43:35;17.53;;;14.07;;
10890;SDS011;5498;50.928;11.598;2023-03-01T11:50:19;16.37;;;12.90;;
10890;SDS011;5498;50.928;11.598;2023-03-01T11:57:08;18.00;;;13.77;;
10890;SDS011;5498;50.928;11.598;2023-03-01T12:00:30;1.27;;;1.07;;
10890;SDS011;5498;50.928;11.598;2023-03-01T12:04:26;2.03;;;1.70;;
10890;SDS011;5498;50.928;11.598;2023-03-01T12:08:05;4.87;;;3.67;;
10890;SDS011;5498;50.928;11.598;2023-03-01T12:11:19;2.13;;;1.70;;
10890;SDS011;5498;50.928;11.598;2023-03-01T12:14:35;2.63;;;2.10;;
10890;SDS011;5498;50.928;11.598;2023-03-01T12:21:41;2.90;;;2.23;;
10890;SDS011;5498;50.928;11.598;2023-03-01T12:25:10;5.43;;;3.97;;
10890;SDS011;5498;50.928;11.598;2023-03-01T12:28:26;1.07;;;0.93;;
10890;SDS011;5498;50.928;11.598;2023-03-01T12:32:06;0.73;;;0.70;;
10890;SDS011;5498;50.928;11.598;2023-03-01T12:35:51;0.43;;;0.43;;
10890;SDS011;5498;50.928;11.598;2023-03-01T12:39:28;0.40;;;0.40;;
10890;SDS011;5498;50.928;11.598;2023-03-01T12:42:48;0.43;;;0.43;;
10890;SDS011;5498;50.928;11.598;2023-03-01T12:46:15;1.69;;;1.33;;
10890;SDS011;5498;50.928;11.598;2023-03-01T12:49:33;0.47;;;0.47;;
10890;SDS011;5498;50.928;11.598;2023-03-01T12:52:42;3.90;;;2.93;;
10890;SDS011;5498;50.928;11.598;2023-03-01T12:55:48;2.87;;;2.27;;
10890;SDS011;5498;50.928;11.598;2023-03-01T12:58:55;1.23;;;1.07;;
10890;SDS011;5498;50.928;11.598;2023-03-01T13:02:05;6.43;;;4.67;;
10890;SDS011;5498;50.928;11.598;2023-03-01T13:05:22;5.60;;;4.13;;
10890;SDS011;5498;50.928;11.598;2023-03-01T13:08:38;1.40;;;1.17;;
10890;SDS011;5498;50.928;11.598;2023-03-01T13:11:45;0.43;;;0.43;;
10890;SDS011;5498;50.928;11.598;2023-03-01T13:14:47;0.93;;;0.83;;
10890;SDS011;5498;50.928;11.598;2023-03-01T13:17:49;2.23;;;1.77;;
10890;SDS011;5498;50.928;11.598;2023-03-01T13:20:53;0.63;;;0.63;;
10890;SDS011;5498;50.928;11.598;2023-03-01T13:23:58;2.00;;;1.60;;
10890;SDS011;5498;50.928;11.598;2023-03-01T13:27:10;0.47;;;0.47;;
10890;SDS011;5498;50.928;11.598;2023-03-01T13:30:38;0.63;;;0.57;;
10890;SDS011;5498;50.928;11.598;2023-03-01T13:33:43;0.47;;;0.47;;
10890;SDS011;5498;50.928;11.598;2023-03-01T13:36:47;1.47;;;1.27;;
10890;SDS011;5498;50.928;11.598;2023-03-01T13:39:51;1.70;;;1.47;;
10890;SDS011;5498;50.928;11.598;2023-03-01T13:42:54;0.63;;;0.60;;
10890;SDS011;5498;50.928;11.598;2023-03-01T13:45:57;1.87;;;1.57;;
10890;SDS011;5498;50.928;11.598;2023-03-01T13:49:00;2.97;;;2.27;;
10890;SDS011;5498;50.928;11.598;2023-03-01T13:52:02;1.63;;;1.33;;
10890;SDS011;5498;50.928;11.598;2023-03-01T13:55:06;0.73;;;0.70;;
10890;SDS011;5498;50.928;11.598;2023-03-01T13:58:21;2.00;;;1.67;;
10890;SDS011;5498;50.928;11.598;2023-03-01T14:01:26;1.40;;;1.20;;
10890;SDS011;5498;50.928;11.598;2023-03-01T14:04:31;5.53;;;3.97;;
10890;SDS011;5498;50.928;11.598;2023-03-01T14:07:35;7.10;;;5.10;;
10890;SDS011;5498;50.928;11.598;2023-03-01T14:10:43;3.33;;;2.67;;
10890;SDS011;5498;50.928;11.598;2023-03-01T14:14:05;4.77;;;3.53;;
10890;SDS011;5498;50.928;11.598;2023-03-01T14:20:51;8.57;;;6.57;;
10890;SDS011;5498;50.928;11.598;2023-03-01T14:23:53;8.30;;;5.90;;
10890;SDS011;5498;50.928;11.598;2023-03-01T14:26:56;8.47;;;6.23;;
10890;SDS011;5498;50.928;11.598;2023-03-01T14:29:58;10.67;;;7.67;;
10890;SDS011;5498;50.928;11.598;2023-03-01T14:33:03;10.57;;;7.60;;
10890;SDS011;5498;50.928;11.598;2023-03-01T14:36:25;6.43;;;4.63;;
10890;SDS011;5498;50.928;11.598;2023-03-01T14:39:28;2.80;;;2.23;;
10890;SDS011;5498;50.928;11.598;2023-03-01T14:42:33;1.57;;;1.33;;
10890;SDS011;5498;50.928;11.598;2023-03-01T14:45:36;4.47;;;3.37;;
10890;SDS011;5498;50.928;11.598;2023-03-01T14:48:38;5.43;;;4.17;;
10890;SDS011;5498;50.928;11.598;2023-03-01T14:51:41;2.87;;;2.27;;
10890;SDS011;5498;50.928;11.598;2023-03-01T14:54:52;2.87;;;2.27;;
10890;SDS011;5498;50.928;11.598;2023-03-01T14:57:56;9.93;;;7.07;;
10890;SDS011;5498;50.928;11.598;2023-03-01T15:00:59;6.50;;;4.73;;
10890;SDS011;5498;50.928;11.598;2023-03-01T15:04:04;13.77;;;9.53;;
10890;SDS011;5498;50.928;11.598;2023-03-01T15:07:09;3.47;;;2.67;;
10890;SDS011;5498;50.928;11.598;2023-03-01T15:10:16;0.60;;;0.60;;
10890;SDS011;5498;50.928;11.598;2023-03-01T15:13:23;3.43;;;2.63;;
10890;SDS011;5498;50.928;11.598;2023-03-01T15:16:27;2.70;;;2.13;;
10890;SDS011;5498;50.928;11.598;2023-03-01T15:19:31;7.70;;;5.47;;
10890;SDS011;5498;50.928;11.598;2023-03-01T15:22:33;9.97;;;7.03;;
10890;SDS011;5498;50.928;11.598;2023-03-01T15:25:36;13.03;;;9.23;;
10890;SDS011;5498;50.928;11.598;2023-03-01T15:28:41;12.40;;;8.57;;
10890;SDS011;5498;50.928;11.598;2023-03-01T15:31:53;11.03;;;7.83;;
10890;SDS011;5498;50.928;11.598;2023-03-01T15:34:57;10.77;;;7.73;;
10890;SDS011;5498;50.928;11.598;2023-03-01T15:38:00;9.73;;;6.97;;
10890;SDS011;5498;50.928;11.598;2023-03-01T15:41:04;10.77;;;7.67;;
10890;SDS011;5498;50.928;11.598;2023-03-01T15:44:26;1.33;;;1.13;;
10890;SDS011;5498;50.928;11.598;2023-03-01T15:47:32;1.43;;;1.20;;
10890;SDS011;5498;50.928;11.598;2023-03-01T15:50:34;0.97;;;0.97;;
10890;SDS011;5498;50.928;11.598;2023-03-01T15:53:39;0.47;;;0.47;;
10890;SDS011;5498;50.928;11.598;2023-03-01T15:56:42;0.47;;;0.47;;
10890;SDS011;5498;50.928;11.598;2023-03-01T15:59:45;0.57;;;0.57;;
10890;SDS011;5498;50.928;11.598;2023-03-01T16:02:47;0.43;;;0.43;;
10890;SDS011;5498;50.928;11.598;2023-03-01T16:05:50;0.50;;;0.50;;
10890;SDS011;5498;50.928;11.598;2023-03-01T16:08:52;0.43;;;0.43;;
10890;SDS011;5498;50.928;11.598;2023-03-01T16:11:53;0.47;;;0.47;;
10890;SDS011;5498;50.928;11.598;2023-03-01T16:14:57;0.50;;;0.50;;
10890;SDS011;5498;50.928;11.598;2023-03-01T16:17:58;0.40;;;0.40;;
10890;SDS011;5498;50.928;11.598;2023-03-01T16:21:00;0.50;;;0.50;;
10890;SDS011;5498;50.928;11.598;2023-03-01T16:24:03;0.53;;;0.53;;
10890;SDS011;5498;50.928;11.598;2023-03-01T16:27:06;0.40;;;0.40;;
10890;SDS011;5498;50.928;11.598;2023-03-01T16:30:10;0.40;;;0.40;;
10890;SDS011;5498;50.928;11.598;2023-03-01T16:33:13;0.53;;;0.53;;
10890;SDS011;5498;50.928;11.598;2023-03-01T16:36:16;0.40;;;0.40;;
10890;SDS011;5498;50.928;11.598;2023-03-01T16:39:20;0.43;;;0.43;;
10890;SDS011;5498;50.928;11.598;2023-03-01T16:42:21;0.47;;;0.47;;
10890;SDS011;5498;50.928;11.598;2023-03-01T16:45:25;0.53;;;0.53;;
10890;SDS011;5498;50.928;11.598;2023-03-01T16:48:27;0.43;;;0.43;;
10890;SDS011;5498;50.928;11.598;2023-03-01T16:51:29;0.73;;;0.73;;
10890;SDS011;5498;50.928;11.598;2023-03-01T16:54:32;0.43;;;0.43;;
10890;SDS011;5498;50.928;11.598;2023-03-01T16:57:34;0.90;;;0.83;;
10890;SDS011;5498;50.928;11.598;2023-03-01T17:00:38;0.50;;;0.50;;
10890;SDS011;5498;50.928;11.598;2023-03-01T17:03:40;0.50;;;0.50;;
10890;SDS011;5498;50.928;11.598;2023-03-01T17:06:42;0.60;;;0.60;;
10890;SDS011;5498;50.928;11.598;2023-03-01T17:09:46;1.13;;;0.97;;
10890;SDS011;5498;50.928;11.598;2023-03-01T17:12:48;1.37;;;1.17;;
10890;SDS011;5498;50.928;11.598;2023-03-01T17:15:52;1.33;;;1.10;;
10890;SDS011;5498;50.928;11.598;2023-03-01T17:18:53;1.30;;;1.10;;
10890;SDS011;5498;50.928;11.598;2023-03-01T17:21:55;1.93;;;1.53;;
10890;SDS011;5498;50.928;11.598;2023-03-01T17:24:57;3.80;;;2.83;;
10890;SDS011;5498;50.928;11.598;2023-03-01T17:27:59;2.83;;;2.17;;
10890;SDS011;5498;50.928;11.598;2023-03-01T17:31:04;4.27;;;3.20;;
10890;SDS011;5498;50.928;11.598;2023-03-01T17:34:07;4.43;;;3.30;;
10890;SDS011;5498;50.928;11.598;2023-03-01T17:37:09;3.13;;;2.43;;
10890;SDS011;5498;50.928;11.598;2023-03-01T17:40:11;1.77;;;1.47;;
10890;SDS011;5498;50.928;11.598;2023-03-01T17:43:14;1.03;;;0.87;;
10890;SDS011;5498;50.928;11.598;2023-03-01T17:46:19;0.60;;;0.60;;
10890;SDS011;5498;50.928;11.598;2023-03-01T17:49:21;0.63;;;0.63;;
10890;SDS011;5498;50.928;11.598;2023-03-01T17:52:22;0.43;;;0.43;;
10890;SDS011;5498;50.928;11.598;2023-03-01T17:55:24;6.90;;;4.93;;
10890;SDS011;5498;50.928;11.598;2023-03-01T17:58:26;0.43;;;0.43;;
10890;SDS011;5498;50.928;11.598;2023-03-01T18:01:29;0.43;;;0.43;;
10890;SDS011;5498;50.928;11.598;2023-03-01T18:04:32;0.40;;;0.40;;
10890;SDS011;5498;50.928;11.598;2023-03-01T18:07:34;0.77;;;0.77;;
10890;SDS011;5498;50.928;11.598;2023-03-01T18:10:36;0.30;;;0.30;;
10890;SDS011;5498;50.928;11.598;2023-03-01T18:13:38;0.33;;;0.33;;
10890;SDS011;5498;50.928;11.598;2023-03-01T18:16:41;0.30;;;0.30;;
10890;SDS011;5498;50.928;11.598;2023-03-01T18:19:43;0.40;;;0.40;;
10890;SDS011;5498;50.928;11.598;2023-03-01T18:22:45;0.43;;;0.43;;
10890;SDS011;5498;50.928;11.598;2023-03-01T18:25:47;0.40;;;0.40;;
10890;SDS011;5498;50.928;11.598;2023-03-01T18:28:50;0.37;;;0.37;;
10890;SDS011;5498;50.928;11.598;2023-03-01T18:31:54;0.40;;;0.40;;